Weather observations for the past three days for
Grand Prairie, Grand Prairie Municipal Airport
Imperial (Metric)
Date Time (cdt) Wind (mph) Vis. (mi.) Weather Sky Cond. Temperature (ºF) Relative Humidity Wind Chill (°F) Heat Index (°F) Pressure Precipitation (in)
Air Dwpt 6 hour altimeter (in) sea level (mb) 1 hr 3 hr 6 hr
Max. Min.
05 12:55 Calm 10.00 Fair CLR 95 64.2 95.2 77.5 36% 97 29.97 0.0
05 12:35 S 6 10.00 Fair CLR 95 64.6 37% 97 29.98 0.0
05 12:15 SE 5 10.00 Fair CLR 93.4 64.4 38% 95 29.98 0.0
05 11:55 S 6 10.00 Fair CLR 93 64.2 39% 95 29.98 0.0
05 11:35 SW 3 10.00 Fair CLR 92.1 65.1 41% 94 29.99 0.0
05 11:15 Calm 10.00 Fair CLR 91.6 66.6 44% 95 29.98 0.0
05 10:55 Calm 10.00 Fair CLR 91 67.1 45% 94 29.98 0.0
05 10:35 S 5 10.00 Fair CLR 89.8 67.1 47% 93 29.99 0.0
05 10:15 Calm 10.00 Fair CLR 88.7 67.3 49% 92 29.98 0.0
05 09:55 SW 6 10.00 Fair CLR 87.6 68.2 53% 91 29.98 0.0
05 09:35 SW 3 10.00 Fair CLR 86 68.9 57% 90 29.98 0.0
05 09:15 SW 5 10.00 Fair CLR 84.2 69.8 62% 88 29.98 0.0
05 08:55 SW 5 10.00 Fair CLR 83.1 70.2 65% 87 29.98 0.0
05 08:35 SW 5 10.00 Fair CLR 81.7 70.2 68% 85 29.97 0.0
05 08:15 S 3 10.00 Fair CLR 80.6 70.3 71% 84 29.97 0.0
05 07:55 S 3 10.00 Fair CLR 79.2 69.8 73% 82 29.96 0.0
05 07:35 S 5 10.00 Fair CLR 77.9 69.3 75% 80 29.96 0.0
05 07:15 Calm 10.00 Fair CLR 78.4 69.1 73% 81 29.96 0.0
05 06:55 Calm 10.00 Fair CLR 78.6 68.9 85.3 78.6 72% 81 29.96 0.0
05 06:35 Calm 10.00 Fair CLR 78.8 68.9 72% 81 29.96 0.0
05 06:15 Calm 10.00 Fair CLR 79.2 68.9 71% 82 29.95 0.0
05 05:55 Calm 10.00 Fair CLR 79 68.9 71% 81 29.95 0.0
05 05:35 Calm 10.00 Fair CLR 79.7 68.9 70% 82 29.95 0.0
05 05:15 Calm 10.00 Fair CLR 79.7 68.9 70% 82 29.95 0.0
05 04:55 Calm 10.00 Fair CLR 80.1 69.1 69% 83 29.95 0.0
05 04:35 S 3 10.00 Fair CLR 80.1 68.9 69% 83 29.95 0.0
05 04:15 S 3 10.00 Fair CLR 81 68.9 67% 84 29.94 0.0
05 03:55 Calm 10.00 Fair CLR 81 68.9 67% 84 29.94 0.0
05 03:35 S 3 10.00 Fair CLR 81.7 68.9 65% 85 29.94 0.0
05 03:15 SW 3 10.00 Fair CLR 82 68.9 65% 85 29.94 0.0
05 02:55 Calm 10.00 Fair CLR 82.4 68.9 64% 86 29.94 0.0
05 02:35 S 5 10.00 Fair CLR 82.6 68.9 63% 86 29.94 0.0
05 02:15 S 5 10.00 Fair CLR 83.3 68.9 62% 87 29.94 0.0
05 01:55 S 5 10.00 Fair CLR 83.8 68.7 60% 87 29.95 0.0
05 01:35 S 3 10.00 Fair CLR 84.4 68.5 59% 88 29.95 0.0
05 01:15 S 5 10.00 Fair CLR 84.9 68.5 58% 89 29.95 0.0
05 00:55 S 5 10.00 Fair CLR 85.3 68.4 96.8 85.3 57% 89 29.95 0.0
05 00:35 S 8 10.00 Fair CLR 86 68.2 55% 90 29.94 0.0
05 00:15 S 6 10.00 Fair CLR 86.2 68 55% 90 29.94 0.0
04 23:55 S 6 10.00 Fair CLR 86.9 68 53% 90 29.94 0.0
04 23:35 S 5 10.00 Fair CLR 87.1 68 53% 91 29.94 0.0
04 23:15 S 7 10.00 Fair CLR 87.8 67.8 52% 91 29.94 0.0
04 22:55 S 6 10.00 Fair CLR 88.3 67.6 50% 92 29.94 0.0
04 22:35 S 6 10.00 Fair CLR 88.9 67.8 50% 93 29.95 0.0
04 22:15 S 7 10.00 Fair CLR 89.6 67.5 48% 93 29.94 0.0
04 21:55 S 8 10.00 Fair CLR 90 67.1 47% 93 29.93 0.0
04 21:15 SE 7 10.00 Fair CLR 91.4 64.4 41% 93 29.91 0.0
04 20:55 SE 7 10.00 Fair CLR 91.8 63.7 39% 93 29.9 0.0
04 20:35 SE 6 10.00 Fair CLR 92.7 62.8 37% 94 29.9 0.0
04 20:15 SE 8 10.00 Fair CLR 93.2 62.2 36% 94 29.89 0.0
04 19:55 SE 8 10.00 Fair CLR 94.1 62.2 35% 95 29.88 0.0
04 19:35 SE 9 G 16 10.00 Fair CLR 94.8 63 35% 96 29.87 0.0
04 19:15 SE 13 10.00 Partly Cloudy SCT075 95.5 63.9 35% 97 29.87 0.0
04 18:55 SE 10 10.00 Mostly Cloudy SCT075 BKN090 97 63.7 99.9 93 33% 99 29.87 0.0
04 18:35 SE 7 10.00 Partly Cloudy SCT075 SCT090 97.5 63.5 33% 100 29.87 0.0
04 18:15 SE 10 10.00 Fair CLR 97.3 63.5 33% 99 29.87 0.0
04 17:55 SE 9 10.00 Fair CLR 99.3 63 30% 101 29.87 0.0
04 17:35 SE 7 10.00 Partly Cloudy SCT070 99.1 62.4 30% 101 29.87 0.0
04 17:15 SE 7 10.00 Partly Cloudy SCT070 97.9 62.4 31% 99 29.87 0.0
04 16:55 S 7 10.00 Fair CLR 99.1 61.7 29% 100 29.87 0.0
04 16:35 SE 7 G 17 10.00 Fair CLR 99.1 61.3 29% 100 29.88 0.0
04 16:15 SE 8 10.00 Fair CLR 99.5 61.9 29% 101 29.89 0.0
04 15:55 S 7 10.00 Partly Cloudy SCT065 98.6 62.4 30% 100 29.9 0.0
04 15:35 S 8 G 18 10.00 Partly Cloudy SCT065 98.6 62.8 31% 100 29.9 0.0
04 15:15 S 10 10.00 Partly Cloudy SCT100 98.8 63.5 31% 101 29.91 0.0
04 14:55 S 6 10.00 Mostly Cloudy SCT065 BKN100 98.1 63.5 32% 100 29.92 0.0
04 14:35 SE 7 10.00 Mostly Cloudy BKN100 97.3 63.3 33% 99 29.93 0.0
04 14:15 S 5 10.00 Partly Cloudy SCT060 SCT110 97.2 63.7 33% 99 29.94 0.0
04 13:55 S 5 10.00 Partly Cloudy SCT100 97.2 64.4 34% 100 29.94 0.0
04 13:35 S 5 10.00 Overcast OVC100 94.1 64.2 37% 96 29.95 0.0
04 13:15 SW 7 10.00 Mostly Cloudy BKN090 94.1 66.6 40% 98 29.96 0.0
04 12:55 SE 7 10.00 Mostly Cloudy BKN090 93 67.3 93.7 77.7 43% 97 29.97 0.0
04 12:35 SE 7 10.00 Partly Cloudy SCT090 92.8 67.6 44% 97 29.97 0.0
04 12:15 S 6 10.00 Partly Cloudy SCT041 SCT090 92.8 68.5 45% 98 29.98 0.0
04 11:55 SW 5 10.00 Partly Cloudy SCT036 SCT090 92.3 69.3 47% 98 29.98 0.0
04 11:35 S 6 10.00 Partly Cloudy SCT032 SCT095 90.5 70.7 52% 97 29.99 0.0
04 11:15 S 9 10.00 Partly Cloudy SCT027 SCT095 89.1 71.1 55% 95 29.99 0.0
04 10:55 SW 9 10.00 Partly Cloudy SCT025 SCT095 88.2 71.6 58% 95 29.99 0.0
04 10:35 SW 10 10.00 Partly Cloudy SCT025 87.4 71.1 58% 93 29.99 0.0
04 10:15 S 9 10.00 Partly Cloudy SCT025 SCT100 86.7 73 64% 94 29.98 0.0
04 09:55 SE 8 10.00 Partly Cloudy SCT016 SCT100 SCT120 84.7 73.4 69% 92 29.98 0.0
04 09:35 S 8 10.00 Mostly Cloudy SCT016 BKN100 BKN120 84 73.2 70% 91 29.98 0.0
04 09:15 S 8 10.00 Overcast BKN016 OVC100 82.8 73.6 74% 89 29.98 0.0
04 08:55 S 8 10.00 Mostly Cloudy BKN011 BKN095 BKN110 82.4 73.6 75% 88 29.98 0.0
04 08:35 SE 8 10.00 Overcast BKN011 BKN014 OVC095 80.4 73.4 79% 85 29.98 0.0
04 08:15 SE 7 10.00 Overcast SCT011 BKN014 OVC120 79.2 73.4 83% 83 29.97 0.0
04 07:55 SE 5 10.00 Overcast BKN090 OVC120 78.8 72.9 82% 82 29.97 0.0
04 07:35 SE 6 10.00 Overcast OVC090 78.3 72.9 84% 81 29.96 0.0
04 07:15 SE 3 10.00 Overcast OVC090 77.9 72.7 84% 80 29.96 0.0
04 06:55 SE 3 10.00 Overcast OVC100 77.7 72.3 79.7 77.5 84% 80 29.95 0.0
04 06:35 SE 5 10.00 Mostly Cloudy BKN110 78.3 72.5 83% 81 29.95 0.0
04 06:15 SE 5 10.00 Mostly Cloudy BKN095 78.3 72.5 83% 81 29.95 0.0
04 05:55 Calm 10.00 Partly Cloudy SCT095 78.3 72.5 83% 81 29.95 0.0
04 05:35 S 3 10.00 Overcast OVC095 78.4 72.5 82% 81 29.94 0.0
04 05:15 S 3 10.00 Mostly Cloudy BKN095 78.4 72.5 82% 81 29.94 0.0
04 04:55 S 3 10.00 Fair CLR 78.4 72.1 81% 81 29.94 0.0
04 04:35 SE 5 10.00 Fair CLR 78.6 72.3 81% 82 29.94 0.0
04 04:15 S 5 10.00 Fair CLR 78.8 72.1 80% 82 29.93 0.0
04 03:55 S 5 10.00 Fair CLR 78.8 72 80% 82 29.93 0.0
04 03:35 SE 5 10.00 Fair CLR 78.8 72 80% 82 29.94 0.0
04 03:15 S 5 10.00 Fair CLR 78.8 72 80% 82 29.93 0.0
04 02:55 S 6 10.00 Fair CLR 78.8 71.8 79% 82 29.93 0.0
04 02:35 S 6 10.00 Partly Cloudy SCT110 79 71.8 79% 82 29.93 0.0
04 02:15 SE 6 10.00 Mostly Cloudy BKN100 79.2 71.8 78% 82 29.94 0.0
04 01:55 S 8 10.00 Partly Cloudy SCT100 79.3 71.6 77% 83 29.94 0.0
04 01:35 S 6 10.00 Mostly Cloudy BKN100 79.3 71.6 77% 83 29.94 0.0
04 01:15 S 7 10.00 Mostly Cloudy BKN100 79.7 71.2 75% 83 29.94 0.0
04 00:55 S 8 10.00 Mostly Cloudy BKN090 79.7 71.1 88.7 79.7 75% 83 29.94 0.0
04 00:35 S 7 10.00 Mostly Cloudy BKN090 BKN110 79.9 70.9 74% 83 29.94 0.0
04 00:15 S 7 10.00 Mostly Cloudy BKN100 80.1 70.5 73% 83 29.94 0.0
03 23:55 S 9 10.00 Partly Cloudy SCT080 SCT100 80.1 70 71% 83 29.94 0.0
03 23:35 S 7 10.00 Partly Cloudy SCT090 SCT110 80.1 69.3 70% 83 29.94 0.0
03 23:15 SE 7 10.00 Partly Cloudy SCT090 80.2 68.2 67% 83 29.94 0.0
03 22:55 SE 9 10.00 Overcast OVC080 80.6 67.3 64% 83 29.94 0.0
03 22:35 SE 8 10.00 Mostly Cloudy BKN090 81.1 67.1 62% 84 29.95 0.0
03 22:15 SE 7 10.00 Fair CLR 81.5 67.8 63% 84 29.94 0.0
03 21:55 SE 7 10.00 Fair CLR 81.7 68.5 65% 85 29.94 0.0
03 21:35 SE 7 10.00 Fair CLR 82.2 69.1 65% 86 29.93 0.0
03 21:15 SE 9 10.00 Fair CLR 82.8 69.8 65% 87 29.92 0.0
03 20:55 SE 8 10.00 Fair CLR 83.3 70 64% 87 29.91 0.0
03 20:35 SE 12 G 16 10.00 Fair CLR 83.8 69.8 63% 88 29.9 0.0
03 20:15 SE 13 G 18 10.00 Fair CLR 84.9 70.7 63% 90 29.89 0.0
03 19:55 SE 9 10.00 Fair CLR 86.9 66.7 51% 90 29.89 0.0
03 19:35 SE 9 10.00 Fair CLR 87.4 66.2 49% 90 29.89 0.0
03 19:15 SE 10 G 18 10.00 Fair CLR 88 67.1 50% 91 29.89 0.0
03 18:55 SE 12 G 17 10.00 Fair CLR 88.7 68 93 85.1 50% 92 29.88 0.0
03 18:35 SE 12 10.00 Fair CLR 89.6 68.2 49% 94 29.88 0.0
03 18:15 SE 10 10.00 Fair CLR 90.3 68.5 49% 95 29.87 0.0
03 17:55 S 9 G 16 10.00 Fair CLR 90.3 69.1 50% 95 29.87 0.0
03 17:35 S 10 10.00 Partly Cloudy SCT120 88.7 69.8 54% 94 29.87 0.0
03 17:15 SE 13 G 17 10.00 Mostly Cloudy SCT041 BKN120 90.5 69.4 50% 96 29.87 0.0
03 16:55 SE 13 10.00 Mostly Cloudy BKN041 BKN046 90.5 70.3 52% 96 29.87 0.0
03 16:35 SE 10 10.00 Mostly Cloudy BKN041 91.4 69.8 49% 97 29.87 0.0
03 16:15 SW 8 10.00 Partly Cloudy SCT041 91.6 70 49% 97 29.88 0.0
03 15:55 S 8 10.00 Partly Cloudy SCT041 90.7 70.3 51% 97 29.89 0.0
03 15:35 S 10 10.00 Partly Cloudy SCT035 SCT120 90 70.2 52% 96 29.9 0.0
03 15:15 S 7 10.00 Overcast BKN033 OVC120 89.2 70.7 54% 95 29.9 0.0
03 14:55 S 10 G 16 10.00 Overcast BKN031 OVC120 89.6 70.9 54% 96 29.91 0.0
03 14:35 S 7 10.00 Overcast BKN029 OVC120 88.7 71.4 57% 95 29.91 0.0
03 14:15 S 12 G 22 10.00 Mostly Cloudy SCT027 BKN120 88.7 71.2 56% 95 29.92 0.0
03 13:55 S 9 G 16 10.00 Mostly Cloudy BKN025 BKN032 87.3 71.4 59% 93 29.93 0.0
03 13:35 S 13 G 17 10.00 Mostly Cloudy BKN025 BKN032 86 71.4 62% 92 29.94 0.0
03 13:15 S 14 10.00 Mostly Cloudy BKN023 BKN032 BKN110 86 71.8 63% 92 29.95 0.0
03 12:55 S 15 G 21 10.00 Overcast BKN025 OVC030 85.5 72 86.9 77.2 64% 92 29.95 0.0
03 12:35 S 16 G 21 10.00 Overcast OVC028 86.5 72.3 63% 93 29.95 0.0
03 12:15 S 13 G 21 10.00 Overcast BKN025 BKN032 OVC110 86.5 72.1 62% 93 29.96 0.0
03 11:55 S 12 G 21 10.00 Overcast BKN023 BKN085 OVC110 86.5 72.5 63% 93 29.95 0.0
03 11:35 S 13 G 17 10.00 Overcast BKN023 BKN027 OVC110 85.8 72.7 65% 93 29.96 0.0
03 11:15 S 13 G 17 10.00 Overcast BKN023 BKN027 OVC110 85.1 73 67% 92 29.96 0.0
03 10:55 SE 9 10.00 Overcast BKN021 OVC026 84.2 72.9 69% 91 29.96 0.0
03 10:35 SE 6 10.00 Overcast BKN021 OVC110 83.3 72.9 71% 89 29.96 0.0
03 10:15 SE 8 10.00 Overcast BKN019 OVC110 81.5 72.5 74% 86 29.96 0.0
03 09:55 S 7 10.00 Overcast OVC017 80.8 72.5 76% 85 29.95 0.0
03 09:35 SE 7 10.00 Overcast OVC015 80.4 72 76% 84 29.96 0.0
03 09:15 SE 5 10.00 Overcast OVC017 80.1 71.8 76% 84 29.96 0.0
03 08:55 S 7 10.00 Overcast OVC019 79.7 71.6 76% 83 29.95 0.0
03 08:35 SE 5 10.00 Partly Cloudy SCT019 79.2 71.2 77% 82 29.95 0.0
03 08:15 SE 3 10.00 Fair CLR 78.6 70.9 77% 81 29.95 0.0
03 07:55 SE 3 10.00 Fair CLR 77.9 70.7 79% 80 29.95 0.0
03 07:35 SE 3 10.00 Fair CLR 77.4 70.7 80% 79 29.94 0.0
03 07:15 SE 3 10.00 Fair CLR 77.4 70.3 79% 79 29.94 0.0
03 06:55 Calm 10.00 Fair CLR 77.4 70 80.8 77.4 78% 79 29.93 0.0
03 06:35 SE 3 10.00 Fair CLR 77.5 69.8 77% 79 29.93 0.0
03 06:15 SE 6 10.00 Fair CLR 77.9 69.3 75% 80 29.94 0.0
03 05:55 SE 5 10.00 Fair CLR 77.9 68.9 74% 80 29.93 0.0
03 05:35 SE 5 10.00 Fair CLR 77.9 68.9 74% 80 29.93 0.0
03 05:15 Calm 10.00 Fair CLR 77.9 68.9 74% 80 29.92 0.0
03 04:55 E 3 10.00 Fair CLR 77.9 68.9 74% 80 29.93 0.0
03 04:35 E 3 10.00 Fair CLR 77.7 69.1 75% 80 29.93 0.0
03 04:15 Calm 10.00 Fair CLR 77.9 69.3 75% 80 29.93 0.0
03 03:55 Calm 10.00 Partly Cloudy SCT027 77.9 68.9 74% 80 29.92 0.0
03 03:35 Calm 10.00 Partly Cloudy SCT027 78.3 68.9 73% 81 29.93 0.0
03 03:15 Calm 10.00 Fair CLR 78.4 68.5 72% 81 29.92 0.0
03 02:55 Calm 10.00 Fair CLR 78.8 68.4 70% 81 29.92 0.0
03 02:35 Calm 10.00 Fair CLR 79 68.4 70% 81 29.93 0.0
03 02:15 SE 3 10.00 Fair CLR 79.3 68.5 70% 82 29.93 0.0
03 01:55 SE 3 10.00 Fair CLR 79.3 68.4 69% 82 29.93 0.0
03 01:35 SE 3 10.00 Partly Cloudy SCT028 79.9 68.4 68% 83 29.93 0.0
03 01:15 SE 5 10.00 Fair CLR 80.6 68.2 66% 83 29.94 0.0
03 00:55 E 8 10.00 Fair CLR 81 68.2 94.3 81 65% 84 29.94 0.0
03 00:35 E 7 10.00 Fair CLR 81.5 68 64% 84 29.95 0.0
03 00:15 E 9 10.00 Fair CLR 82 67.6 62% 85 29.95 0.0
02 23:55 E 6 10.00 Fair CLR 82.9 67.5 60% 86 29.94 0.0
02 23:35 E 9 10.00 Fair CLR 83.3 67.5 59% 86 29.94 0.0
02 23:15 E 5 10.00 Fair CLR 83.8 67.3 58% 87 29.94 0.0
02 22:55 E 10 10.00 Fair CLR 84.6 67.1 56% 87 29.94 0.0
02 22:35 E 9 10.00 Fair CLR 85.3 67.3 55% 88 29.94 0.0
02 22:15 E 10 10.00 Fair CLR 86.5 67.1 52% 89 29.94 0.0
02 21:55 E 9 10.00 Fair CLR 87.3 66.4 50% 90 29.93 0.0
02 21:35 E 12 10.00 Fair CLR 87.8 66.4 49% 90 29.92 0.0
02 21:15 SE 10 G 18 10.00 Fair CLR 88.9 66.2 47% 91 29.92 0.0
02 20:55 SE 9 10.00 Fair CLR 90.1 65.1 44% 92 29.91 0.0
02 20:35 SE 8 10.00 Fair CLR 90.5 66.4 45% 93 29.9 0.0
02 20:15 SE 9 10.00 Fair CLR 91.4 66.2 44% 94 29.9 0.0
02 19:55 E 15 10.00 Partly Cloudy SCT090 92.7 65.5 41% 95 29.89 0.0
02 19:35 E 9 10.00 Overcast SCT080 BKN090 OVC120 93.6 64.6 38% 96 29.89 0.0
02 19:15 E 10 10.00 Mostly Cloudy SCT090 BKN110 93.7 65.1 39% 96 29.89 0.0
02 18:55 E 16 G 26 10.00 Partly Cloudy SCT090 94.6 64.8 99.5 93.9 37% 97 29.88 0.0
02 18:35 E 13 G 18 10.00 Fair CLR 98.2 61.2 29% 99 29.87 0.0
02 17:55 E 9 G 16 10.00 Fair CLR 99.3 61.7 29% 101 29.87 0.0
02 17:35 NE 7 10.00 Fair CLR 98.8 61.3 29% 100 29.87 0.0
02 17:15 E 14 10.00 Fair CLR 98.8 61.5 29% 100 29.88 0.0
02 16:55 NE 12 10.00 Fair CLR 99.3 61.9 29% 101 29.88 0.0
02 16:35 E 10 10.00 Fair CLR 99.3 61 28% 100 29.89 0.0
02 16:15 NE 9 G 17 10.00 Fair CLR 98.6 61.7 30% 100 29.9 0.0
02 15:55 E 10 G 17 10.00 Partly Cloudy SCT070 98.1 62.1 31% 99 29.9 0.0
02 15:35 NE 9 G 16 10.00 Fair CLR 98.1 62.2 31% 99 29.91 0.0
02 15:15 E 7 G 17 10.00 Fair CLR 97.7 61 30% 98 29.92 0.0
Date Time (cdt) Wind (mph) Vis. (mi.) Weather Sky Cond. Air Dwpt Max. Min. Relative Humidity Wind Chill (°F) Heat Index (°F) altimeter (in) sea level (mb) 1 hr 3 hr 6 hr
6 hour
Temperature (ºF) Pressure Precipitation (in)